createdAt,value
2023-02-24T00:01:52.613Z,8.10
2023-02-24T00:04:20.890Z,8.00
2023-02-24T00:06:48.276Z,8.00
2023-02-24T00:09:21.578Z,7.90
2023-02-24T00:12:03.962Z,7.90
2023-02-24T00:14:33.575Z,7.80
2023-02-24T00:17:00.800Z,7.80
2023-02-24T00:19:32.498Z,7.80
2023-02-24T00:22:00.709Z,7.90
2023-02-24T00:24:27.809Z,7.80
2023-02-24T00:26:59.605Z,7.80
2023-02-24T00:29:28.837Z,7.80
2023-02-24T00:32:00.822Z,7.80
2023-02-24T00:34:28.858Z,7.80
2023-02-24T00:36:57.815Z,7.80
2023-02-24T00:39:33.136Z,7.80
2023-02-24T00:42:06.532Z,7.70
2023-02-24T00:44:41.669Z,7.70
2023-02-24T00:47:10.363Z,7.70
2023-02-24T00:49:42.730Z,7.60
2023-02-24T00:52:18.166Z,7.60
2023-02-24T00:54:46.608Z,7.50
2023-02-24T00:57:14.283Z,7.60
2023-02-24T00:59:41.105Z,7.60
2023-02-24T01:02:08.366Z,7.60
2023-02-24T01:04:37.681Z,7.40
2023-02-24T01:07:10.433Z,7.50
2023-02-24T01:09:39.080Z,7.50
2023-02-24T01:12:38.163Z,7.50
2023-02-24T01:15:11.437Z,7.50
2023-02-24T01:17:38.345Z,7.60
2023-02-24T01:20:16.948Z,7.50
2023-02-24T01:22:50.348Z,7.50
2023-02-24T01:25:20.108Z,7.50
2023-02-24T01:27:46.895Z,7.50
2023-02-24T01:30:15.919Z,7.50
2023-02-24T01:32:44.400Z,7.50
2023-02-24T01:35:12.106Z,7.50
2023-02-24T01:37:39.322Z,7.50
2023-02-24T01:40:17.984Z,7.50
2023-02-24T01:42:47.626Z,7.60
2023-02-24T01:45:18.224Z,7.60
2023-02-24T01:47:47.332Z,7.60
2023-02-24T01:50:17.721Z,7.40
2023-02-24T01:52:46.315Z,7.40
2023-02-24T01:55:36.787Z,7.40
2023-02-24T01:58:18.826Z,7.30
2023-02-24T02:00:46.961Z,7.40
2023-02-24T02:03:37.893Z,7.40
2023-02-24T02:06:07.722Z,7.40
2023-02-24T02:08:38.231Z,7.40
2023-02-24T02:11:10.245Z,7.50
2023-02-24T02:13:49.889Z,7.50
2023-02-24T02:16:25.513Z,7.50
2023-02-24T02:19:02.326Z,7.40
2023-02-24T02:22:07.989Z,7.40
2023-02-24T02:25:03.712Z,7.40
2023-02-24T02:28:13.139Z,7.40
2023-02-24T02:30:55.298Z,7.40
2023-02-24T02:33:39.822Z,7.40
2023-02-24T02:36:12.943Z,7.30
2023-02-24T02:38:58.497Z,7.20
2023-02-24T02:41:30.964Z,7.20
2023-02-24T02:44:11.914Z,7.20
2023-02-24T02:47:09.824Z,7.20
2023-02-24T02:49:42.324Z,7.20
2023-02-24T02:52:21.643Z,7.20
2023-02-24T02:54:56.195Z,7.30
2023-02-24T02:57:31.273Z,7.30
2023-02-24T03:00:23.770Z,7.30
2023-02-24T03:02:58.794Z,7.40
2023-02-24T03:05:42.264Z,7.40
2023-02-24T03:08:17.041Z,7.30
2023-02-24T03:10:54.940Z,7.40
2023-02-24T03:13:32.971Z,7.30
2023-02-24T03:16:17.569Z,7.30
2023-02-24T03:18:52.207Z,7.30
2023-02-24T03:21:34.366Z,7.30
2023-02-24T03:24:15.569Z,7.20
2023-02-24T03:26:50.240Z,7.20
2023-02-24T03:29:30.479Z,7.20
2023-02-24T03:32:06.421Z,7.10
2023-02-24T03:35:00.616Z,7.10
2023-02-24T03:37:57.188Z,7.00
2023-02-24T03:40:37.009Z,7.10
2023-02-24T03:43:10.003Z,7.00
2023-02-24T03:45:47.068Z,7.00
2023-02-24T03:48:14.407Z,6.90
2023-02-24T03:50:42.714Z,7.00
2023-02-24T03:53:33.859Z,7.00
2023-02-24T03:56:29.330Z,6.90
2023-02-24T03:59:18.716Z,6.90
2023-02-24T04:02:03.495Z,7.00
2023-02-24T04:04:52.508Z,7.00
2023-02-24T04:07:41.182Z,7.00
2023-02-24T04:10:16.713Z,6.90
2023-02-24T04:12:56.073Z,6.90
2023-02-24T04:15:43.754Z,6.90
2023-02-24T04:18:21.615Z,6.90
2023-02-24T04:20:53.231Z,6.90
2023-02-24T04:23:26.666Z,6.70
2023-02-24T04:26:00.176Z,6.70
2023-02-24T04:28:29.729Z,6.70
2023-02-24T04:31:10.914Z,6.70
2023-02-24T04:33:41.001Z,6.60
2023-02-24T04:36:09.156Z,6.60
2023-02-24T04:38:36.361Z,6.60
2023-02-24T04:41:03.307Z,6.60
2023-02-24T04:43:35.771Z,6.60
2023-02-24T04:46:07.704Z,6.50
2023-02-24T04:48:35.055Z,6.50
2023-02-24T04:51:02.419Z,6.60
2023-02-24T04:53:29.097Z,6.40
2023-02-24T04:56:07.804Z,6.30
2023-02-24T04:58:36.791Z,6.30
2023-02-24T05:01:10.231Z,6.30
2023-02-24T05:03:41.127Z,6.40
2023-02-24T05:06:17.992Z,6.40
2023-02-24T05:09:00.836Z,6.40
2023-02-24T05:11:34.797Z,6.30
2023-02-24T05:14:04.511Z,6.50
2023-02-24T05:16:31.949Z,6.50
2023-02-24T05:19:17.639Z,6.50
2023-02-24T05:22:05.412Z,6.50
2023-02-24T05:24:49.097Z,6.50
2023-02-24T05:29:57.814Z,6.50
2023-02-24T05:32:25.420Z,6.60
2023-02-24T05:37:59.012Z,6.50
2023-02-24T05:40:25.648Z,6.50
2023-02-24T05:42:52.345Z,6.50
2023-02-24T05:45:22.004Z,6.40
2023-02-24T05:47:48.700Z,6.40
2023-02-24T05:50:15.786Z,6.40
2023-02-24T05:52:45.773Z,6.40
2023-02-24T05:55:13.928Z,6.30
2023-02-24T05:57:54.862Z,6.30
2023-02-24T06:00:25.808Z,6.40
2023-02-24T06:02:52.643Z,6.30
2023-02-24T06:05:34.938Z,6.30
2023-02-24T06:08:06.736Z,6.30
2023-02-24T06:10:34.334Z,6.30
2023-02-24T06:13:12.856Z,6.20
2023-02-24T06:15:55.469Z,6.20
2023-02-24T06:18:22.117Z,6.30
2023-02-24T06:20:51.292Z,6.50
2023-02-24T06:23:26.658Z,6.40
2023-02-24T06:26:07.146Z,6.50
2023-02-24T06:28:37.019Z,6.50
2023-02-24T06:31:06.832Z,6.50
2023-02-24T06:33:36.252Z,6.40
2023-02-24T06:36:21.539Z,6.40
2023-02-24T06:38:49.577Z,6.50
2023-02-24T06:41:30.486Z,6.50
2023-02-24T06:43:57.257Z,6.50
2023-02-24T06:46:24.007Z,6.60
2023-02-24T06:48:50.902Z,6.60
2023-02-24T06:51:17.702Z,6.60
2023-02-24T06:53:44.792Z,6.60
2023-02-24T06:56:19.669Z,6.50
2023-02-24T06:58:52.068Z,6.50
2023-02-24T07:01:25.895Z,6.60
2023-02-24T07:04:17.499Z,6.60
2023-02-24T07:06:49.384Z,6.60
2023-02-24T07:09:19.683Z,6.80
2023-02-24T07:11:52.421Z,6.80
2023-02-24T07:14:25.299Z,6.90
2023-02-24T07:16:55.512Z,7.00
2023-02-24T07:19:25.765Z,7.10
2023-02-24T07:22:00.023Z,7.10
2023-02-24T07:24:36.221Z,7.30
2023-02-24T07:27:06.459Z,7.40
2023-02-24T07:29:34.125Z,7.30
2023-02-24T07:32:03.720Z,7.40
2023-02-24T07:34:31.998Z,7.30
2023-02-24T07:36:58.781Z,7.30
2023-02-24T07:39:25.899Z,7.30
2023-02-24T07:41:55.134Z,7.30
2023-02-24T07:44:24.186Z,7.20
2023-02-24T07:46:51.325Z,7.40
2023-02-24T07:49:26.029Z,7.40
2023-02-24T07:51:57.576Z,7.70
2023-02-24T07:54:25.785Z,7.60
2023-02-24T07:57:06.137Z,7.80
2023-02-24T08:00:00.585Z,7.80
2023-02-24T08:02:29.182Z,7.90
2023-02-24T08:04:55.824Z,8.10
2023-02-24T08:07:25.737Z,8.10
2023-02-24T08:10:14.065Z,8.00
2023-02-24T08:12:52.416Z,7.90
2023-02-24T08:15:23.954Z,7.90
2023-02-24T08:18:08.254Z,7.80
2023-02-24T08:20:53.993Z,7.90
2023-02-24T08:23:26.555Z,7.90
2023-02-24T08:25:55.186Z,8.20
2023-02-24T08:28:26.768Z,8.40
2023-02-24T08:30:53.560Z,8.40
2023-02-24T08:33:36.230Z,8.30
2023-02-24T08:36:08.329Z,8.30
2023-02-24T08:38:42.007Z,8.10
2023-02-24T08:41:17.755Z,8.20
2023-02-24T08:43:46.399Z,8.30
2023-02-24T08:46:19.183Z,8.30
2023-02-24T08:48:59.672Z,8.40
2023-02-24T08:51:35.475Z,8.60
2023-02-24T08:54:10.715Z,8.60
2023-02-24T08:56:43.220Z,8.60
2023-02-24T08:59:34.962Z,8.70
2023-02-24T09:02:39.420Z,8.90
2023-02-24T09:05:14.846Z,9.20
2023-02-24T09:07:48.039Z,9.10
2023-02-24T09:10:29.742Z,9.20
2023-02-24T09:12:56.646Z,9.10
2023-02-24T09:15:25.560Z,9.30
2023-02-24T09:18:01.556Z,9.30
2023-02-24T09:20:51.357Z,9.30
2023-02-24T09:23:21.076Z,9.50
2023-02-24T09:25:50.856Z,9.50
2023-02-24T09:28:20.179Z,9.70
2023-02-24T09:31:08.799Z,9.80
2023-02-24T09:33:39.520Z,9.60
2023-02-24T09:36:20.060Z,9.30
2023-02-24T09:39:02.081Z,9.20
2023-02-24T09:41:59.086Z,9.10
2023-02-24T09:44:41.422Z,9.00
2023-02-24T09:47:45.711Z,8.70
2023-02-24T09:51:01.993Z,8.50
2023-02-24T09:53:41.242Z,8.40
2023-02-24T09:56:08.328Z,8.40
2023-02-24T09:58:48.437Z,8.00
2023-02-24T10:01:36.062Z,8.10
2023-02-24T10:04:20.070Z,8.10
2023-02-24T10:07:10.931Z,8.00
2023-02-24T10:10:27.011Z,8.00
2023-02-24T10:13:30.261Z,8.10
2023-02-24T10:16:06.166Z,8.40
2023-02-24T10:19:01.137Z,8.40
2023-02-24T10:21:53.807Z,8.40
2023-02-24T10:24:35.880Z,8.50
2023-02-24T10:27:26.115Z,8.60
2023-02-24T10:30:11.339Z,8.70
2023-02-24T10:32:53.070Z,8.50
2023-02-24T10:35:25.872Z,8.60
2023-02-24T10:37:53.772Z,8.60
2023-02-24T10:40:43.774Z,8.60
2023-02-24T10:43:22.172Z,8.60
2023-02-24T10:46:04.625Z,8.70
2023-02-24T10:48:41.678Z,8.80
2023-02-24T10:51:21.943Z,8.70
2023-02-24T10:54:09.813Z,8.70
2023-02-24T10:56:44.312Z,8.60
2023-02-24T10:59:24.692Z,8.70
2023-02-24T11:02:24.430Z,8.50
2023-02-24T11:05:04.312Z,8.50
2023-02-24T11:07:45.357Z,8.30
2023-02-24T11:10:26.161Z,8.40
2023-02-24T11:13:13.617Z,8.20
2023-02-24T11:16:07.877Z,8.40
2023-02-24T11:18:34.816Z,8.30
2023-02-24T11:21:04.977Z,8.20
2023-02-24T11:23:38.334Z,8.20
2023-02-24T11:26:26.514Z,8.30
2023-02-24T11:29:06.468Z,8.40
2023-02-24T11:31:53.418Z,8.50
2023-02-24T11:34:27.473Z,8.70
2023-02-24T11:37:18.246Z,9.30
2023-02-24T11:39:53.836Z,9.60
2023-02-24T11:42:38.169Z,9.50
2023-02-24T11:45:12.738Z,9.60
2023-02-24T11:47:48.749Z,9.90
2023-02-24T11:50:43.806Z,9.80
2023-02-24T11:53:33.998Z,10.30
2023-02-24T11:56:15.121Z,10.50
2023-02-24T11:58:50.781Z,10.60
2023-02-24T12:01:38.521Z,10.70
2023-02-24T12:04:26.502Z,10.70
2023-02-24T12:07:23.346Z,10.70
2023-02-24T12:10:16.587Z,10.60
2023-02-24T12:12:51.027Z,10.30
2023-02-24T12:15:17.634Z,10.10
2023-02-24T12:18:14.004Z,10.10
2023-02-24T12:20:46.886Z,10.00
2023-02-24T12:23:15.881Z,10.10
2023-02-24T12:26:17.596Z,10.20
2023-02-24T12:29:10.323Z,10.40
2023-02-24T12:32:01.716Z,10.60
2023-02-24T12:34:47.551Z,10.70
2023-02-24T12:37:42.118Z,10.90
2023-02-24T12:40:23.580Z,10.50
2023-02-24T12:42:50.399Z,10.60
2023-02-24T12:45:39.206Z,10.30
2023-02-24T12:48:21.198Z,10.00
2023-02-24T12:51:08.850Z,9.80
2023-02-24T12:53:41.603Z,9.70
2023-02-24T12:56:25.453Z,9.40
2023-02-24T12:58:57.804Z,9.20
2023-02-24T13:01:28.369Z,9.20
2023-02-24T13:04:18.580Z,9.20
2023-02-24T13:07:20.142Z,9.10
2023-02-24T13:10:10.326Z,9.10
2023-02-24T13:12:42.600Z,9.10
2023-02-24T13:15:26.510Z,9.10
2023-02-24T13:17:58.039Z,9.00
2023-02-24T13:20:37.689Z,9.20
2023-02-24T13:23:21.223Z,9.30
2023-02-24T13:25:56.028Z,9.50
2023-02-24T13:28:26.545Z,9.70
2023-02-24T13:31:12.261Z,9.60
2023-02-24T13:33:41.661Z,9.60
2023-02-24T13:36:21.700Z,9.50
2023-02-24T13:38:54.048Z,9.40
2023-02-24T13:41:26.597Z,9.30
2023-02-24T13:43:58.828Z,9.30
2023-02-24T13:46:27.125Z,9.20
2023-02-24T13:49:22.953Z,9.20
2023-02-24T13:51:53.336Z,9.20
2023-02-24T13:54:25.594Z,9.10
2023-02-24T13:56:52.208Z,9.10
2023-02-24T13:59:37.429Z,9.20
2023-02-24T14:02:10.595Z,9.10
2023-02-24T14:04:44.483Z,9.00
2023-02-24T14:07:17.328Z,8.80
2023-02-24T14:09:47.968Z,8.60
2023-02-24T14:12:19.581Z,8.60
2023-02-24T14:14:47.916Z,8.60
2023-02-24T14:17:29.451Z,8.40
2023-02-24T14:20:20.828Z,8.40
2023-02-24T14:22:58.785Z,8.30
2023-02-24T14:25:30.130Z,8.30
2023-02-24T14:27:57.675Z,8.40
2023-02-24T14:30:31.439Z,8.30
2023-02-24T14:32:58.703Z,8.50
2023-02-24T14:35:38.889Z,8.40
2023-02-24T14:38:06.150Z,8.60
2023-02-24T14:40:34.565Z,8.50
2023-02-24T14:43:09.849Z,8.50
2023-02-24T14:45:47.517Z,8.60
2023-02-24T14:48:31.512Z,8.60
2023-02-24T14:51:27.361Z,8.60
2023-02-24T14:54:09.740Z,8.50
2023-02-24T14:56:37.397Z,8.50
2023-02-24T14:59:18.682Z,8.60
2023-02-24T15:01:52.039Z,8.50
2023-02-24T15:04:36.694Z,8.60
2023-02-24T15:07:07.928Z,8.40
2023-02-24T15:09:41.057Z,8.40
2023-02-24T15:12:29.700Z,8.30
2023-02-24T15:15:07.072Z,8.30
2023-02-24T15:17:38.856Z,8.30
2023-02-24T15:20:25.009Z,8.20
2023-02-24T15:22:51.808Z,8.40
2023-02-24T15:25:24.079Z,8.40
2023-02-24T15:27:54.591Z,8.40
2023-02-24T15:30:33.338Z,8.30
2023-02-24T15:33:06.717Z,8.30
2023-02-24T15:35:37.605Z,8.10
2023-02-24T15:38:04.635Z,8.10
2023-02-24T15:40:31.916Z,7.90
2023-02-24T15:43:10.397Z,7.90
2023-02-24T15:45:39.246Z,7.80
2023-02-24T15:48:24.910Z,7.80
2023-02-24T15:50:58.019Z,7.70
2023-02-24T15:53:24.690Z,7.60
2023-02-24T15:55:51.674Z,7.60
2023-02-24T15:58:21.741Z,7.60
2023-02-24T16:00:53.161Z,7.50
2023-02-24T16:03:20.058Z,7.50
2023-02-24T16:05:47.044Z,7.50
2023-02-24T16:08:18.154Z,7.40
2023-02-24T16:10:45.071Z,7.40
2023-02-24T16:13:19.753Z,7.30
2023-02-24T16:15:50.185Z,7.30
2023-02-24T16:18:24.075Z,7.20
2023-02-24T16:20:56.683Z,7.20
2023-02-24T16:23:26.247Z,7.20
2023-02-24T16:26:01.656Z,7.10
2023-02-24T16:28:30.210Z,7.10
2023-02-24T16:30:57.997Z,7.00
2023-02-24T16:33:25.006Z,7.10
2023-02-24T16:35:55.485Z,7.00
2023-02-24T16:38:26.610Z,7.10
2023-02-24T16:40:54.647Z,7.00
2023-02-24T16:43:21.400Z,7.00
2023-02-24T16:45:48.285Z,7.00
2023-02-24T16:48:23.770Z,7.00
2023-02-24T16:50:51.019Z,7.00
2023-02-24T16:53:20.899Z,6.90
2023-02-24T16:55:48.080Z,6.90
2023-02-24T16:58:15.561Z,6.90
2023-02-24T17:00:45.193Z,6.80
2023-02-24T17:03:25.483Z,6.80
2023-02-24T17:05:53.509Z,6.80
2023-02-24T17:08:20.736Z,6.70
2023-02-24T17:10:48.388Z,6.70
2023-02-24T17:13:20.929Z,6.70
2023-02-24T17:15:58.785Z,6.70
2023-02-24T17:18:26.833Z,6.70
2023-02-24T17:20:54.209Z,6.70
2023-02-24T17:23:21.310Z,6.70
2023-02-24T17:25:52.484Z,6.60
2023-02-24T17:28:21.932Z,6.60
2023-02-24T17:30:51.676Z,6.60
2023-02-24T17:33:20.831Z,6.70
2023-02-24T17:35:52.489Z,6.60
2023-02-24T17:38:26.928Z,6.60
2023-02-24T17:40:55.624Z,6.60
2023-02-24T17:43:22.265Z,6.60
2023-02-24T17:45:52.915Z,6.60
2023-02-24T17:48:20.010Z,6.50
2023-02-24T17:50:47.712Z,6.50
2023-02-24T17:53:20.873Z,6.50
2023-02-24T17:56:01.783Z,6.50
2023-02-24T17:58:28.898Z,6.60
2023-02-24T18:00:55.678Z,6.50
2023-02-24T18:03:22.608Z,6.50
2023-02-24T18:05:57.068Z,6.50
2023-02-24T18:08:23.848Z,6.50
2023-02-24T18:10:50.540Z,6.50
2023-02-24T18:13:17.506Z,6.40
2023-02-24T18:15:44.249Z,6.40
2023-02-24T18:18:11.007Z,6.40
2023-02-24T18:20:42.424Z,6.40
2023-02-24T18:23:10.128Z,6.40
2023-02-24T18:25:37.067Z,6.30
2023-02-24T18:28:04.086Z,6.30
2023-02-24T18:30:31.518Z,6.30
2023-02-24T18:32:58.693Z,6.20
2023-02-24T18:35:25.718Z,6.20
2023-02-24T18:37:58.625Z,6.20
2023-02-24T18:40:29.178Z,6.20
2023-02-24T18:42:56.072Z,6.10
2023-02-24T18:45:23.405Z,6.10
2023-02-24T18:47:53.626Z,6.00
2023-02-24T18:50:24.920Z,6.10
2023-02-24T18:52:51.884Z,6.00
2023-02-24T18:55:19.744Z,6.10
2023-02-24T18:57:47.450Z,6.00
2023-02-24T19:00:15.238Z,6.00
2023-02-24T19:02:42.069Z,6.00
2023-02-24T19:05:09.287Z,6.00
2023-02-24T19:07:36.102Z,6.00
2023-02-24T19:10:03.463Z,5.90
2023-02-24T19:12:30.172Z,6.00
2023-02-24T19:14:56.955Z,5.90
2023-02-24T19:17:23.655Z,5.90
2023-02-24T19:19:50.617Z,5.90
2023-02-24T19:22:17.441Z,5.80
2023-02-24T19:24:44.286Z,5.90
2023-02-24T19:27:10.953Z,5.90
2023-02-24T19:29:37.605Z,5.80
2023-02-24T19:32:04.523Z,5.80
2023-02-24T19:34:31.324Z,5.80
2023-02-24T19:36:58.030Z,5.80
2023-02-24T19:39:24.749Z,5.80
2023-02-24T19:41:53.132Z,5.80
2023-02-24T19:44:19.759Z,5.80
2023-02-24T19:46:46.516Z,5.80
2023-02-24T19:49:13.405Z,5.80
2023-02-24T19:51:40.179Z,5.80
2023-02-24T19:54:06.918Z,5.80
2023-02-24T19:56:36.340Z,5.80
2023-02-24T19:59:05.300Z,5.80
2023-02-24T20:01:32.307Z,5.80
2023-02-24T20:04:01.316Z,5.70
2023-02-24T20:06:46.272Z,5.70
2023-02-24T20:09:21.333Z,5.70
2023-02-24T20:11:50.135Z,5.70
2023-02-24T20:14:18.723Z,5.70
2023-02-24T20:16:46.264Z,5.70
2023-02-24T20:19:14.527Z,5.70
2023-02-24T20:21:42.002Z,5.70
2023-02-24T20:24:13.615Z,5.70
2023-02-24T20:26:42.379Z,5.70
2023-02-24T20:29:11.137Z,5.60
2023-02-24T20:31:38.370Z,5.70
2023-02-24T20:34:06.293Z,5.60
2023-02-24T20:36:33.110Z,5.60
2023-02-24T20:38:59.979Z,5.60
2023-02-24T20:41:27.787Z,5.60
2023-02-24T20:43:55.212Z,5.50
2023-02-24T20:46:25.802Z,5.60
2023-02-24T20:48:57.326Z,5.50
2023-02-24T20:51:24.799Z,5.50
2023-02-24T20:53:57.711Z,5.50
2023-02-24T20:56:26.614Z,5.50
2023-02-24T20:59:01.333Z,5.50
2023-02-24T21:01:30.223Z,5.50
2023-02-24T21:03:57.321Z,5.40
2023-02-24T21:06:24.508Z,5.40
2023-02-24T21:08:53.207Z,5.40
2023-02-24T21:11:20.610Z,5.40
2023-02-24T21:13:48.852Z,5.40
2023-02-24T21:16:22.276Z,5.40
2023-02-24T21:18:51.406Z,5.30
2023-02-24T21:21:19.497Z,5.30
2023-02-24T21:23:47.274Z,5.40
2023-02-24T21:26:14.689Z,5.30
2023-02-24T21:28:41.461Z,5.30
2023-02-24T21:31:13.905Z,5.30
2023-02-24T21:33:41.135Z,5.20
2023-02-24T21:36:11.266Z,5.20
2023-02-24T21:38:38.250Z,5.10
2023-02-24T21:41:07.658Z,5.00
2023-02-24T21:43:34.626Z,4.40
2023-02-24T21:46:06.052Z,4.10
2023-02-24T21:48:33.535Z,3.90
2023-02-24T21:51:03.758Z,3.60
2023-02-24T21:53:35.628Z,3.70
2023-02-24T21:56:16.910Z,3.50
2023-02-24T21:58:53.763Z,3.40
2023-02-24T22:01:23.973Z,3.40
2023-02-24T22:03:56.869Z,3.40
2023-02-24T22:06:26.004Z,3.40
2023-02-24T22:08:55.005Z,3.30
2023-02-24T22:11:22.278Z,3.40
2023-02-24T22:13:49.228Z,3.40
2023-02-24T22:16:21.844Z,3.40
2023-02-24T22:18:50.073Z,3.40
2023-02-24T22:21:20.334Z,3.50
2023-02-24T22:23:48.817Z,3.50
2023-02-24T22:26:16.851Z,3.50
2023-02-24T22:28:46.649Z,3.50
2023-02-24T22:31:19.494Z,3.50
2023-02-24T22:33:46.881Z,3.60
2023-02-24T22:36:17.357Z,3.70
2023-02-24T22:38:48.251Z,3.70
2023-02-24T22:41:24.524Z,3.60
2023-02-24T22:43:54.257Z,3.60
2023-02-24T22:46:24.715Z,3.60
2023-02-24T22:48:51.814Z,3.60
2023-02-24T22:51:19.110Z,3.60
2023-02-24T22:53:48.814Z,3.60
2023-02-24T22:56:18.424Z,3.60
2023-02-24T22:58:45.343Z,3.50
2023-02-24T23:01:18.660Z,3.60
2023-02-24T23:03:46.116Z,3.60
2023-02-24T23:06:18.615Z,3.60
2023-02-24T23:08:47.426Z,3.60
2023-02-24T23:11:18.426Z,3.60
2023-02-24T23:13:47.737Z,3.60
2023-02-24T23:16:18.453Z,3.60
2023-02-24T23:18:48.629Z,3.60
2023-02-24T23:21:16.504Z,3.60
2023-02-24T23:23:43.435Z,3.50
2023-02-24T23:26:11.262Z,3.60
2023-02-24T23:28:38.969Z,3.60
2023-02-24T23:31:07.423Z,3.60
2023-02-24T23:33:41.554Z,3.60
2023-02-24T23:36:08.559Z,3.60
2023-02-24T23:38:35.235Z,3.60
2023-02-24T23:41:08.988Z,3.50
2023-02-24T23:43:36.041Z,3.60
2023-02-24T23:46:08.780Z,3.60
2023-02-24T23:48:36.083Z,3.50
2023-02-24T23:51:07.853Z,3.60
2023-02-24T23:53:41.890Z,3.60
2023-02-24T23:56:15.733Z,3.50
2023-02-24T23:58:42.675Z,3.60
